createdAt,value
2022-08-31T00:02:09.791Z,4.05
2022-08-31T00:04:36.861Z,4.05
2022-08-31T00:07:04.180Z,4.45
2022-08-31T00:09:32.928Z,3.90
2022-08-31T00:12:00.369Z,4.35
2022-08-31T00:14:27.189Z,4.53
2022-08-31T00:16:53.911Z,4.07
2022-08-31T00:19:20.643Z,4.13
2022-08-31T00:21:47.476Z,4.75
2022-08-31T00:24:14.580Z,4.50
2022-08-31T00:26:42.188Z,4.22
2022-08-31T00:29:09.506Z,4.30
2022-08-31T00:31:36.429Z,4.70
2022-08-31T00:34:03.982Z,4.07
2022-08-31T00:36:30.711Z,4.07
2022-08-31T00:38:57.945Z,4.82
2022-08-31T00:41:27.887Z,4.00
2022-08-31T00:44:03.718Z,4.63
2022-08-31T00:46:32.944Z,4.53
2022-08-31T00:49:04.590Z,4.80
2022-08-31T00:51:34.172Z,4.15
2022-08-31T00:54:00.972Z,4.32
2022-08-31T00:56:27.817Z,4.18
2022-08-31T00:58:55.114Z,4.22
2022-08-31T01:01:22.752Z,4.78
2022-08-31T01:03:49.989Z,4.43
2022-08-31T01:06:17.557Z,4.88
2022-08-31T01:08:45.483Z,4.32
2022-08-31T01:11:13.377Z,4.88
2022-08-31T01:13:40.556Z,4.40
2022-08-31T01:16:11.235Z,4.85
2022-08-31T01:18:39.015Z,4.57
2022-08-31T01:21:13.909Z,4.38
2022-08-31T01:23:43.565Z,5.05
2022-08-31T01:26:15.397Z,4.43
2022-08-31T01:28:42.166Z,5.65
2022-08-31T01:31:33.109Z,5.25
2022-08-31T01:34:01.313Z,5.65
2022-08-31T01:36:28.520Z,5.20
2022-08-31T01:38:56.357Z,5.65
2022-08-31T01:41:23.438Z,6.00
2022-08-31T01:43:50.795Z,6.28
2022-08-31T01:46:17.533Z,6.75
2022-08-31T01:48:45.629Z,6.18
2022-08-31T01:51:14.200Z,6.22
2022-08-31T01:53:45.281Z,6.45
2022-08-31T01:56:14.410Z,6.68
2022-08-31T01:58:41.431Z,6.22
2022-08-31T02:01:38.783Z,6.40
2022-08-31T02:04:06.920Z,6.07
2022-08-31T02:06:34.204Z,6.47
2022-08-31T02:09:07.035Z,5.72
2022-08-31T02:11:33.782Z,7.20
2022-08-31T02:14:00.633Z,7.65
2022-08-31T02:16:27.661Z,7.07
2022-08-31T02:18:54.516Z,6.78
2022-08-31T02:21:21.344Z,7.25
2022-08-31T02:23:48.182Z,7.30
2022-08-31T02:26:15.489Z,6.85
2022-08-31T02:28:45.519Z,7.18
2022-08-31T02:31:12.579Z,7.95
2022-08-31T02:33:46.901Z,7.18
2022-08-31T02:36:13.689Z,7.32
2022-08-31T02:38:41.895Z,7.20
2022-08-31T02:41:09.807Z,6.93
2022-08-31T02:43:38.901Z,7.20
2022-08-31T02:46:05.774Z,6.75
2022-08-31T02:48:38.568Z,7.15
2022-08-31T02:51:07.820Z,7.97
2022-08-31T02:53:35.084Z,7.63
2022-08-31T02:56:02.072Z,7.68
2022-08-31T02:58:29.355Z,6.97
2022-08-31T03:00:56.198Z,6.97
2022-08-31T03:03:23.449Z,6.80
2022-08-31T03:05:50.475Z,7.43
2022-08-31T03:08:17.913Z,7.60
2022-08-31T03:10:47.484Z,7.80
2022-08-31T03:13:14.501Z,7.35
2022-08-31T03:15:43.030Z,6.80
2022-08-31T03:18:10.371Z,7.85
2022-08-31T03:20:37.152Z,7.93
2022-08-31T03:23:05.323Z,7.40
2022-08-31T03:25:32.681Z,7.10
2022-08-31T03:27:59.805Z,7.35
2022-08-31T03:30:31.402Z,7.57
2022-08-31T03:33:03.111Z,7.15
2022-08-31T03:35:32.077Z,7.22
2022-08-31T03:37:58.986Z,8.00
2022-08-31T03:40:25.753Z,6.97
2022-08-31T03:42:53.051Z,7.05
2022-08-31T03:45:20.252Z,6.82
2022-08-31T03:47:47.390Z,7.10
2022-08-31T03:50:16.280Z,7.85
2022-08-31T03:52:57.231Z,6.72
2022-08-31T03:55:23.985Z,7.05
2022-08-31T03:57:51.570Z,7.43
2022-08-31T04:00:18.983Z,7.03
2022-08-31T04:02:52.893Z,7.47
2022-08-31T04:05:35.678Z,7.50
2022-08-31T04:08:14.756Z,7.75
2022-08-31T04:11:00.043Z,7.15
2022-08-31T04:13:33.101Z,8.45
2022-08-31T04:16:20.909Z,7.18
2022-08-31T04:19:11.581Z,7.95
2022-08-31T04:21:47.694Z,7.20
2022-08-31T04:24:14.457Z,7.18
2022-08-31T04:26:41.736Z,7.63
2022-08-31T04:29:13.093Z,8.07
2022-08-31T04:31:40.628Z,7.80
2022-08-31T04:34:08.267Z,7.82
2022-08-31T04:36:35.714Z,8.15
2022-08-31T04:39:03.871Z,7.32
2022-08-31T04:41:32.352Z,7.65
2022-08-31T04:44:00.737Z,7.63
2022-08-31T04:46:27.941Z,8.18
2022-08-31T04:48:55.916Z,7.20
2022-08-31T04:51:25.987Z,7.68
2022-08-31T04:53:53.118Z,7.97
2022-08-31T04:56:40.925Z,8.30
2022-08-31T04:59:09.282Z,8.40
2022-08-31T05:01:45.406Z,8.73
2022-08-31T05:04:36.585Z,8.48
2022-08-31T05:07:03.859Z,8.07
2022-08-31T05:09:31.099Z,7.80
2022-08-31T05:11:57.927Z,8.57
2022-08-31T05:14:25.854Z,7.95
2022-08-31T05:17:01.359Z,8.10
2022-08-31T05:19:32.110Z,8.48
2022-08-31T05:21:59.240Z,8.68
2022-08-31T05:24:26.327Z,7.38
2022-08-31T05:26:56.380Z,7.75
2022-08-31T05:29:25.131Z,8.38
2022-08-31T05:32:03.985Z,7.72
2022-08-31T05:34:31.843Z,8.20
2022-08-31T05:36:58.672Z,8.70
2022-08-31T05:39:30.863Z,8.35
2022-08-31T05:41:57.609Z,8.25
2022-08-31T05:44:26.094Z,8.48
2022-08-31T05:46:57.398Z,9.02
2022-08-31T05:49:27.909Z,8.15
2022-08-31T05:51:56.550Z,8.95
2022-08-31T05:54:23.444Z,8.25
2022-08-31T05:56:50.160Z,8.82
2022-08-31T05:59:16.958Z,9.20
2022-08-31T06:01:44.590Z,9.40
2022-08-31T06:04:14.851Z,9.10
2022-08-31T06:06:43.529Z,8.95
2022-08-31T06:09:13.245Z,8.15
2022-08-31T06:11:42.365Z,9.45
2022-08-31T06:14:12.504Z,9.35
2022-08-31T06:16:40.111Z,8.65
2022-08-31T06:19:07.896Z,9.45
2022-08-31T06:21:49.793Z,8.30
2022-08-31T06:24:20.641Z,8.48
2022-08-31T06:26:58.389Z,7.82
2022-08-31T06:29:31.698Z,8.32
2022-08-31T06:32:00.500Z,8.15
2022-08-31T06:34:29.370Z,7.60
2022-08-31T06:37:05.747Z,8.30
2022-08-31T06:39:53.864Z,8.23
2022-08-31T06:42:40.877Z,7.82
2022-08-31T06:45:27.931Z,8.15
2022-08-31T06:48:03.541Z,8.00
2022-08-31T06:50:30.309Z,7.20
2022-08-31T06:52:58.358Z,7.20
2022-08-31T06:55:46.027Z,6.95
2022-08-31T06:58:31.595Z,7.53
2022-08-31T07:01:35.734Z,7.30
2022-08-31T07:04:11.611Z,7.40
2022-08-31T07:06:42.750Z,6.65
2022-08-31T07:09:13.728Z,5.85
2022-08-31T07:11:44.769Z,6.38
2022-08-31T07:14:14.980Z,6.18
2022-08-31T07:16:43.424Z,5.63
2022-08-31T07:19:11.919Z,5.70
2022-08-31T07:21:45.234Z,5.10
2022-08-31T07:24:14.718Z,5.32
2022-08-31T07:26:46.695Z,5.53
2022-08-31T07:29:18.304Z,5.05
2022-08-31T07:31:48.499Z,5.25
2022-08-31T07:34:27.215Z,4.85
2022-08-31T07:37:32.983Z,5.03
2022-08-31T07:40:18.662Z,4.90
2022-08-31T07:42:47.083Z,6.03
2022-08-31T07:45:23.187Z,5.75
2022-08-31T07:47:53.224Z,5.93
2022-08-31T07:50:22.736Z,5.78
2022-08-31T07:53:08.668Z,5.30
2022-08-31T07:55:56.866Z,5.18
2022-08-31T07:58:31.225Z,5.45
2022-08-31T08:01:00.549Z,5.30
2022-08-31T08:03:30.092Z,5.68
2022-08-31T08:06:17.659Z,5.72
2022-08-31T08:09:24.005Z,4.57
2022-08-31T08:12:25.251Z,4.70
2022-08-31T08:15:06.644Z,5.00
2022-08-31T08:17:52.231Z,5.03
2022-08-31T08:20:35.358Z,4.70
2022-08-31T08:23:11.491Z,5.75
2022-08-31T08:26:09.607Z,4.65
2022-08-31T08:29:18.877Z,5.07
2022-08-31T08:31:53.056Z,5.18
2022-08-31T08:34:21.860Z,5.07
2022-08-31T08:36:58.369Z,5.45
2022-08-31T08:39:25.127Z,5.10
2022-08-31T08:42:12.576Z,5.30
2022-08-31T08:44:40.334Z,5.05
2022-08-31T08:47:15.242Z,5.63
2022-08-31T08:49:54.216Z,6.38
2022-08-31T08:52:44.435Z,5.20
2022-08-31T08:55:18.368Z,5.40
2022-08-31T08:57:49.588Z,4.93
2022-08-31T09:00:20.068Z,5.55
2022-08-31T09:03:01.255Z,4.95
2022-08-31T09:06:08.044Z,5.57
2022-08-31T09:08:54.835Z,6.10
2022-08-31T09:11:53.260Z,6.07
2022-08-31T09:14:24.578Z,5.43
2022-08-31T09:17:01.856Z,6.07
2022-08-31T09:19:28.826Z,5.45
2022-08-31T09:21:58.084Z,5.38
2022-08-31T09:24:30.377Z,5.72
2022-08-31T09:27:20.319Z,5.25
2022-08-31T09:29:56.058Z,5.68
2022-08-31T09:32:29.134Z,5.57
2022-08-31T09:35:01.814Z,5.53
2022-08-31T09:37:45.078Z,5.75
2022-08-31T09:40:23.829Z,5.68
2022-08-31T09:43:05.005Z,5.55
2022-08-31T09:45:38.739Z,5.40
2022-08-31T09:48:09.227Z,5.72
2022-08-31T09:50:46.317Z,6.00
2022-08-31T09:53:34.685Z,5.18
2022-08-31T09:56:16.870Z,5.75
2022-08-31T09:58:49.130Z,5.45
2022-08-31T10:01:23.341Z,5.25
2022-08-31T10:03:50.495Z,6.20
2022-08-31T10:06:26.167Z,5.85
2022-08-31T10:09:02.809Z,5.80
2022-08-31T10:11:31.620Z,5.88
2022-08-31T10:14:06.319Z,5.97
2022-08-31T10:16:35.672Z,5.90
2022-08-31T10:19:06.624Z,6.22
2022-08-31T10:21:53.561Z,5.68
2022-08-31T10:24:34.683Z,5.55
2022-08-31T10:27:18.904Z,5.15
2022-08-31T10:29:53.066Z,5.10
2022-08-31T10:32:45.281Z,5.80
2022-08-31T10:35:22.937Z,6.50
2022-08-31T10:38:08.217Z,6.63
2022-08-31T10:41:12.521Z,6.28
2022-08-31T10:44:06.303Z,5.85
2022-08-31T10:46:35.660Z,6.30
2022-08-31T10:49:04.525Z,5.80
2022-08-31T10:51:53.249Z,5.80
2022-08-31T10:54:41.225Z,6.50
2022-08-31T10:57:31.427Z,6.13
2022-08-31T11:00:37.928Z,6.82
2022-08-31T11:03:07.493Z,6.85
2022-08-31T11:05:37.980Z,6.30
2022-08-31T11:08:12.342Z,6.75
2022-08-31T11:10:49.164Z,7.07
2022-08-31T11:13:36.296Z,7.35
2022-08-31T11:16:21.340Z,6.60
2022-08-31T11:18:52.006Z,6.88
2022-08-31T11:21:45.575Z,7.63
2022-08-31T11:25:01.060Z,6.80
2022-08-31T11:27:37.051Z,7.63
2022-08-31T11:30:16.466Z,8.18
2022-08-31T11:32:52.533Z,7.63
2022-08-31T11:36:05.477Z,7.68
2022-08-31T11:39:01.810Z,7.95
2022-08-31T11:41:31.351Z,7.63
2022-08-31T11:43:58.476Z,7.90
2022-08-31T11:46:28.754Z,8.20
2022-08-31T11:48:55.484Z,8.15
2022-08-31T11:51:46.233Z,8.02
2022-08-31T11:54:56.671Z,8.32
2022-08-31T11:57:36.914Z,9.45
2022-08-31T12:00:18.881Z,9.13
2022-08-31T12:02:45.865Z,8.50
2022-08-31T12:05:13.062Z,9.00
2022-08-31T12:07:45.042Z,8.32
2022-08-31T12:10:27.809Z,8.52
2022-08-31T12:13:09.462Z,7.97
2022-08-31T12:16:15.060Z,8.40
2022-08-31T12:18:57.947Z,8.27
2022-08-31T12:21:53.337Z,8.13
2022-08-31T12:24:49.261Z,8.38
2022-08-31T12:27:44.187Z,6.95
2022-08-31T12:30:18.934Z,7.03
2022-08-31T12:32:46.581Z,7.88
2022-08-31T12:35:28.261Z,7.75
2022-08-31T12:38:19.133Z,7.18
2022-08-31T12:40:51.581Z,6.70
2022-08-31T12:43:22.041Z,7.72
2022-08-31T12:45:58.571Z,8.27
2022-08-31T12:48:47.168Z,7.93
2022-08-31T12:51:35.547Z,7.95
2022-08-31T12:54:17.642Z,7.57
2022-08-31T12:56:57.850Z,7.97
2022-08-31T12:59:59.822Z,7.20
2022-08-31T13:02:28.166Z,7.60
2022-08-31T13:04:55.018Z,7.75
2022-08-31T13:07:28.910Z,6.80
2022-08-31T13:10:29.517Z,7.47
2022-08-31T13:13:00.768Z,6.80
2022-08-31T13:15:36.174Z,7.90
2022-08-31T13:18:14.651Z,7.68
2022-08-31T13:20:44.220Z,7.60
2022-08-31T13:23:22.272Z,6.90
2022-08-31T13:26:25.923Z,6.53
2022-08-31T13:29:00.524Z,6.53
2022-08-31T13:31:30.707Z,6.50
2022-08-31T13:34:03.022Z,6.35
2022-08-31T13:39:24.284Z,5.85
2022-08-31T13:42:10.836Z,6.03
2022-08-31T13:44:45.061Z,5.90
2022-08-31T13:47:21.436Z,5.57
2022-08-31T13:49:49.203Z,5.60
2022-08-31T13:52:36.340Z,5.93
2022-08-31T13:55:13.428Z,6.03
2022-08-31T13:57:41.744Z,5.90
2022-08-31T14:00:32.989Z,5.57
2022-08-31T14:03:29.776Z,5.43
2022-08-31T14:05:58.969Z,6.47
2022-08-31T14:08:28.384Z,5.57
2022-08-31T14:10:55.919Z,5.63
2022-08-31T14:13:27.972Z,6.38
2022-08-31T14:15:56.718Z,6.20
2022-08-31T14:18:55.384Z,6.57
2022-08-31T14:21:29.055Z,6.95
2022-08-31T14:24:04.694Z,6.20
2022-08-31T14:26:37.136Z,6.07
2022-08-31T14:29:12.470Z,5.20
2022-08-31T14:31:52.926Z,5.28
2022-08-31T14:34:35.784Z,4.85
2022-08-31T14:37:06.948Z,5.13
2022-08-31T14:39:38.325Z,5.07
2022-08-31T14:42:07.896Z,5.37
2022-08-31T14:44:42.475Z,5.32
2022-08-31T14:47:09.860Z,5.13
2022-08-31T14:49:37.069Z,5.03
2022-08-31T14:52:06.434Z,4.38
2022-08-31T14:54:37.481Z,5.00
2022-08-31T14:57:31.335Z,5.20
2022-08-31T15:00:02.171Z,5.10
2022-08-31T15:02:33.615Z,5.93
2022-08-31T15:05:06.422Z,6.18
2022-08-31T15:07:35.712Z,5.85
2022-08-31T15:10:04.224Z,5.45
2022-08-31T15:12:30.913Z,5.72
2022-08-31T15:15:00.503Z,5.30
2022-08-31T15:17:29.672Z,7.03
2022-08-31T15:19:57.514Z,8.02
2022-08-31T15:22:26.364Z,8.20
2022-08-31T15:24:54.191Z,7.00
2022-08-31T15:27:22.517Z,8.07
2022-08-31T15:29:51.830Z,7.07
2022-08-31T15:32:18.686Z,6.57
2022-08-31T15:34:57.820Z,5.85
2022-08-31T15:37:31.735Z,5.57
2022-08-31T15:40:02.085Z,4.78
2022-08-31T15:42:31.492Z,5.37
2022-08-31T15:44:58.369Z,4.97
2022-08-31T15:47:51.676Z,5.57
2022-08-31T15:50:20.305Z,5.28
2022-08-31T15:52:51.692Z,4.85
2022-08-31T15:55:21.853Z,4.60
2022-08-31T15:57:48.793Z,5.45
2022-08-31T16:00:15.992Z,4.75
2022-08-31T16:02:43.961Z,5.03
2022-08-31T16:05:11.982Z,5.30
2022-08-31T16:07:39.796Z,4.55
2022-08-31T16:10:16.703Z,5.03
2022-08-31T16:12:46.226Z,4.50
2022-08-31T16:15:15.683Z,4.70
2022-08-31T16:17:42.666Z,3.97
2022-08-31T16:20:12.135Z,5.15
2022-08-31T16:22:39.260Z,4.07
2022-08-31T16:25:07.093Z,4.68
2022-08-31T16:27:34.235Z,4.72
2022-08-31T16:30:01.127Z,5.10
2022-08-31T16:32:27.991Z,4.85
2022-08-31T16:34:56.659Z,5.07
2022-08-31T16:37:24.001Z,4.75
2022-08-31T16:39:50.895Z,5.43
2022-08-31T16:42:18.126Z,5.20
2022-08-31T16:44:46.921Z,4.38
2022-08-31T16:47:16.784Z,4.78
2022-08-31T16:49:44.228Z,5.30
2022-08-31T16:52:18.248Z,4.70
2022-08-31T16:54:51.164Z,4.32
2022-08-31T16:57:20.923Z,4.75
2022-08-31T16:59:48.893Z,4.88
2022-08-31T17:02:16.906Z,5.75
2022-08-31T17:04:53.364Z,6.30
2022-08-31T17:07:21.830Z,5.05
2022-08-31T17:09:49.214Z,5.20
2022-08-31T17:12:19.486Z,5.35
2022-08-31T17:14:51.498Z,5.30
2022-08-31T17:17:23.261Z,4.95
2022-08-31T17:19:52.278Z,5.75
2022-08-31T17:22:25.796Z,5.28
2022-08-31T17:24:57.849Z,5.63
2022-08-31T17:27:25.974Z,5.65
2022-08-31T17:29:55.386Z,5.28
2022-08-31T17:32:24.765Z,5.53
2022-08-31T17:34:54.610Z,6.30
2022-08-31T17:37:26.631Z,5.72
2022-08-31T17:39:54.074Z,5.63
2022-08-31T17:42:22.501Z,5.57
2022-08-31T17:44:53.171Z,6.95
2022-08-31T17:47:22.185Z,7.05
2022-08-31T17:49:51.164Z,7.13
2022-08-31T17:52:20.732Z,6.93
2022-08-31T17:54:47.745Z,7.07
2022-08-31T17:57:15.848Z,6.85
2022-08-31T17:59:46.712Z,7.53
2022-08-31T18:02:16.874Z,7.75
2022-08-31T18:04:43.874Z,6.50
2022-08-31T18:07:11.238Z,7.57
2022-08-31T18:09:42.862Z,8.45
2022-08-31T18:12:10.016Z,9.45
2022-08-31T18:14:38.546Z,9.07
2022-08-31T18:17:08.837Z,9.40
2022-08-31T18:19:36.705Z,9.30
2022-08-31T18:22:03.939Z,8.98
2022-08-31T18:24:36.627Z,9.40
2022-08-31T18:29:34.309Z,9.27
2022-08-31T18:32:04.381Z,10.77
2022-08-31T18:34:39.148Z,11.15
2022-08-31T18:37:06.698Z,10.82
2022-08-31T18:39:59.690Z,10.65
2022-08-31T18:42:46.783Z,10.15
2022-08-31T18:45:16.951Z,10.05
2022-08-31T18:48:13.480Z,10.45
2022-08-31T18:50:37.259Z,10.57
2022-08-31T18:53:08.118Z,10.88
2022-08-31T18:55:41.067Z,10.48
2022-08-31T18:58:07.912Z,10.75
2022-08-31T19:00:34.850Z,9.80
2022-08-31T19:03:02.665Z,10.43
2022-08-31T19:05:31.641Z,10.40
2022-08-31T19:08:00.628Z,10.75
2022-08-31T19:10:28.178Z,10.60
2022-08-31T19:12:56.025Z,10.70
2022-08-31T19:15:25.431Z,12.13
2022-08-31T19:18:01.997Z,11.68
2022-08-31T19:20:29.365Z,12.45
2022-08-31T19:22:56.434Z,13.13
2022-08-31T19:25:23.485Z,12.57
2022-08-31T19:27:52.085Z,11.77
2022-08-31T19:30:25.996Z,12.13
2022-08-31T19:32:56.357Z,11.48
2022-08-31T19:35:25.912Z,11.13
2022-08-31T19:37:53.845Z,12.02
2022-08-31T19:40:21.437Z,12.95
2022-08-31T19:45:44.971Z,11.73
2022-08-31T19:48:12.500Z,14.93
2022-08-31T19:50:42.369Z,14.27
2022-08-31T19:53:12.736Z,13.32
2022-08-31T19:55:53.624Z,12.90
2022-08-31T19:58:26.634Z,13.18
2022-08-31T20:01:00.807Z,11.88
2022-08-31T20:03:28.408Z,12.50
2022-08-31T20:05:55.761Z,12.20
2022-08-31T20:08:22.532Z,11.50
2022-08-31T20:10:49.530Z,10.90
2022-08-31T20:13:16.345Z,11.43
2022-08-31T20:15:44.813Z,10.82
2022-08-31T20:18:12.898Z,11.60
2022-08-31T20:20:45.325Z,11.75
2022-08-31T20:25:45.969Z,13.45
2022-08-31T20:28:13.393Z,12.93
2022-08-31T20:30:41.476Z,13.43
2022-08-31T20:33:09.773Z,14.13
2022-08-31T20:35:41.630Z,14.52
2022-08-31T20:38:13.304Z,13.43
2022-08-31T20:40:41.632Z,13.80
2022-08-31T20:43:10.874Z,13.38
2022-08-31T20:45:38.814Z,13.65
2022-08-31T20:48:24.700Z,13.20
2022-08-31T20:50:51.435Z,13.35
2022-08-31T20:53:24.840Z,13.52
2022-08-31T20:56:06.980Z,14.02
2022-08-31T20:58:33.706Z,13.93
2022-08-31T21:01:05.524Z,14.20
2022-08-31T21:03:32.196Z,13.68
2022-08-31T21:06:08.771Z,12.65
2022-08-31T21:08:38.335Z,14.95
2022-08-31T21:11:12.952Z,14.10
2022-08-31T21:13:39.745Z,13.10
2022-08-31T21:16:06.861Z,13.63
2022-08-31T21:18:34.912Z,13.82
2022-08-31T21:21:08.451Z,13.52
2022-08-31T21:23:36.872Z,14.93
2022-08-31T21:26:05.026Z,14.10
2022-08-31T21:28:31.834Z,14.70
2022-08-31T21:31:15.753Z,13.68
2022-08-31T21:33:46.407Z,13.32
2022-08-31T21:36:15.679Z,13.48
2022-08-31T21:38:43.128Z,13.48
2022-08-31T21:41:11.506Z,12.20
2022-08-31T21:43:39.083Z,11.77
2022-08-31T21:46:07.057Z,13.77
2022-08-31T21:48:35.185Z,13.52
2022-08-31T21:51:21.502Z,12.32
2022-08-31T21:53:51.800Z,12.65
2022-08-31T21:56:20.171Z,13.60
2022-08-31T21:58:47.905Z,12.82
2022-08-31T22:01:18.562Z,12.90
2022-08-31T22:03:49.521Z,12.82
2022-08-31T22:06:22.336Z,12.23
2022-08-31T22:09:02.069Z,12.80
2022-08-31T22:11:32.217Z,13.30
2022-08-31T22:13:59.491Z,12.10
2022-08-31T22:16:27.815Z,12.07
2022-08-31T22:19:01.772Z,12.45
2022-08-31T22:21:32.252Z,11.48
2022-08-31T22:24:04.417Z,12.43
2022-08-31T22:26:34.539Z,11.40
2022-08-31T22:29:01.311Z,11.98
2022-08-31T22:31:28.225Z,11.85
2022-08-31T22:33:55.035Z,11.65
2022-08-31T22:36:31.449Z,11.48
2022-08-31T22:39:12.871Z,11.90
2022-08-31T22:41:41.492Z,12.95
2022-08-31T22:44:16.368Z,12.93
2022-08-31T22:46:43.526Z,12.07
2022-08-31T22:49:11.142Z,12.40
2022-08-31T22:51:40.857Z,12.55
2022-08-31T22:56:39.046Z,12.43
2022-08-31T22:59:09.873Z,11.85
2022-08-31T23:01:42.256Z,12.60
2022-08-31T23:06:38.008Z,11.65
2022-08-31T23:09:10.618Z,12.55
2022-08-31T23:11:38.469Z,11.77
2022-08-31T23:14:10.235Z,12.77
2022-08-31T23:16:40.409Z,12.50
2022-08-31T23:19:20.178Z,12.75
2022-08-31T23:21:53.034Z,12.60
2022-08-31T23:24:28.738Z,12.77
2022-08-31T23:27:04.135Z,12.65
2022-08-31T23:29:45.752Z,12.38
2022-08-31T23:32:13.482Z,12.38
2022-08-31T23:34:41.983Z,12.20
2022-08-31T23:37:10.510Z,13.98
2022-08-31T23:39:40.477Z,12.65
2022-08-31T23:42:07.645Z,12.20
2022-08-31T23:44:36.224Z,11.77
2022-08-31T23:47:03.053Z,13.38
2022-08-31T23:49:29.858Z,12.20
2022-08-31T23:51:56.572Z,11.98
2022-08-31T23:54:23.370Z,12.52
2022-08-31T23:56:52.337Z,12.50
2022-08-31T23:59:19.949Z,11.55
